createdAt,value
2017-07-16T00:00:42.019Z,1004.29
2017-07-16T00:01:51.741Z,1004.36
2017-07-16T00:03:02.361Z,1004.34
2017-07-16T00:04:12.717Z,1004.28
2017-07-16T00:05:23.094Z,1004.26
2017-07-16T00:06:33.445Z,1004.28
2017-07-16T00:07:43.806Z,1004.32
2017-07-16T00:08:54.160Z,1004.32
2017-07-16T00:10:04.503Z,1004.27
2017-07-16T00:11:14.856Z,1004.34
2017-07-16T00:12:25.185Z,1004.29
2017-07-16T00:13:35.561Z,1004.28
2017-07-16T00:14:45.605Z,1004.3
2017-07-16T00:15:55.665Z,1004.33
2017-07-16T00:17:05.378Z,1004.32
2017-07-16T00:18:15.770Z,1004.34
2017-07-16T00:19:25.816Z,1004.34
2017-07-16T00:20:36.164Z,1004.31
2017-07-16T00:21:46.533Z,1004.36
2017-07-16T00:22:56.570Z,1004.35
2017-07-16T00:24:06.667Z,1004.36
2017-07-16T00:25:17.010Z,1004.31
2017-07-16T00:26:27.400Z,1004.35
2017-07-16T00:27:37.734Z,1004.35
2017-07-16T00:28:48.080Z,1004.37
2017-07-16T00:29:57.851Z,1004.42
2017-07-16T00:31:08.199Z,1004.38
2017-07-16T00:32:18.554Z,1004.41
2017-07-16T00:33:28.910Z,1004.4
2017-07-16T00:34:39.295Z,1004.4
2017-07-16T00:35:49.384Z,1004.41
2017-07-16T00:36:59.739Z,1004.43
2017-07-16T00:38:09.762Z,1004.41
2017-07-16T00:39:19.790Z,1004.4
2017-07-16T00:40:30.171Z,1004.43
2017-07-16T00:41:40.572Z,1004.43
2017-07-16T00:42:50.935Z,1004.5
2017-07-16T00:44:01.284Z,1004.44
2017-07-16T00:45:11.669Z,1004.4
2017-07-16T00:46:21.996Z,1004.4
2017-07-16T00:47:32.412Z,1004.41
2017-07-16T00:48:42.775Z,1004.41
2017-07-16T00:49:52.800Z,1004.43
2017-07-16T00:51:02.193Z,1004.43
2017-07-16T00:52:12.559Z,1004.41
2017-07-16T00:53:22.332Z,1004.39
2017-07-16T00:54:32.723Z,1004.42
2017-07-16T00:55:42.751Z,1004.47
2017-07-16T00:56:52.782Z,1004.42
2017-07-16T00:58:03.122Z,1004.44
2017-07-16T00:59:13.325Z,1004.4
2017-07-16T01:00:23.346Z,1004.43
2017-07-16T01:01:33.682Z,1004.48
2017-07-16T01:02:44.015Z,1004.47
2017-07-16T01:03:54.402Z,1004.46
2017-07-16T01:05:04.821Z,1004.45
2017-07-16T01:06:14.862Z,1004.38
2017-07-16T01:07:25.214Z,1004.49
2017-07-16T01:08:35.573Z,1004.5
2017-07-16T01:09:45.921Z,1004.53
2017-07-16T01:10:56.274Z,1004.52
2017-07-16T01:12:06.307Z,1004.5
2017-07-16T01:13:16.335Z,1004.47
2017-07-16T01:14:26.727Z,1004.42
2017-07-16T01:15:37.078Z,1004.36
2017-07-16T01:16:47.101Z,1004.38
2017-07-16T01:17:57.125Z,1004.37
2017-07-16T01:19:07.148Z,1004.39
2017-07-16T01:20:17.177Z,1004.28
2017-07-16T01:21:27.535Z,1004.35
2017-07-16T01:22:37.340Z,1004.32
2017-07-16T01:23:47.688Z,1004.32
2017-07-16T01:24:58.074Z,1004.32
2017-07-16T01:26:08.450Z,1004.35
2017-07-16T01:27:18.792Z,1004.33
2017-07-16T01:28:28.862Z,1004.32
2017-07-16T01:29:39.212Z,1004.33
2017-07-16T01:30:49.249Z,1004.38
2017-07-16T01:31:59.290Z,1004.35
2017-07-16T01:33:09.326Z,1004.35
2017-07-16T01:34:19.357Z,1004.37
2017-07-16T01:35:29.739Z,1004.37
2017-07-16T01:36:39.767Z,1004.32
2017-07-16T01:37:49.806Z,1004.38
2017-07-16T01:39:00.171Z,1004.39
2017-07-16T01:40:10.507Z,1004.42
2017-07-16T01:41:20.856Z,1004.41
2017-07-16T01:42:31.215Z,1004.4
2017-07-16T01:43:41.585Z,1004.35
2017-07-16T01:44:51.949Z,1004.37
2017-07-16T01:46:02.309Z,1004.37
2017-07-16T01:47:12.646Z,1004.44
2017-07-16T01:48:23.004Z,1004.39
2017-07-16T01:49:33.368Z,1004.4
2017-07-16T01:50:43.753Z,1004.34
2017-07-16T01:51:54.109Z,1004.37
2017-07-16T01:53:04.145Z,1004.4
2017-07-16T01:54:14.511Z,1004.39
2017-07-16T01:55:24.875Z,1004.36
2017-07-16T01:56:35.232Z,1004.39
2017-07-16T01:57:45.257Z,1004.38
2017-07-16T01:58:55.291Z,1004.33
2017-07-16T02:00:05.659Z,1004.29
2017-07-16T02:01:16.013Z,1004.33
2017-07-16T02:02:26.477Z,1004.33
2017-07-16T02:03:36.878Z,1004.36
2017-07-16T02:04:46.924Z,1004.33
2017-07-16T02:05:56.940Z,1004.38
2017-07-16T02:07:07.292Z,1004.39
2017-07-16T02:08:17.473Z,1004.4
2017-07-16T02:09:27.235Z,1004.43
2017-07-16T02:10:37.271Z,1004.4
2017-07-16T02:11:47.645Z,1004.44
2017-07-16T02:12:58.025Z,1004.41
2017-07-16T02:14:07.422Z,1004.41
2017-07-16T02:15:17.769Z,1004.37
2017-07-16T02:16:28.131Z,1004.39
2017-07-16T02:17:38.474Z,1004.33
2017-07-16T02:18:48.230Z,1004.37
2017-07-16T02:19:58.587Z,1004.37
2017-07-16T02:21:08.312Z,1004.38
2017-07-16T02:22:18.335Z,1004.34
2017-07-16T02:23:28.067Z,1004.38
2017-07-16T02:24:38.080Z,1004.44
2017-07-16T02:25:48.450Z,1004.36
2017-07-16T02:26:58.531Z,1004.4
2017-07-16T02:28:08.875Z,1004.39
2017-07-16T02:29:18.584Z,1004.45
2017-07-16T02:30:28.942Z,1004.41
2017-07-16T02:31:39.298Z,1004.48
2017-07-16T02:32:49.379Z,1004.46
2017-07-16T02:33:59.743Z,1004.49
2017-07-16T02:35:09.832Z,1004.48
2017-07-16T02:36:20.175Z,1004.48
2017-07-16T02:37:30.519Z,1004.45
2017-07-16T02:38:40.550Z,1004.53
2017-07-16T02:39:50.575Z,1004.42
2017-07-16T02:41:00.947Z,1004.46
2017-07-16T02:42:11.285Z,1004.43
2017-07-16T02:43:21.624Z,1004.48
2017-07-16T02:44:31.714Z,1004.47
2017-07-16T02:45:42.069Z,1004.5
2017-07-16T02:46:52.098Z,1004.5
2017-07-16T02:48:02.438Z,1004.53
2017-07-16T02:49:12.769Z,1004.52
2017-07-16T02:50:22.856Z,1004.56
2017-07-16T02:51:32.885Z,1004.51
2017-07-16T02:52:43.232Z,1004.47
2017-07-16T02:53:53.587Z,1004.48
2017-07-16T02:55:03.949Z,1004.53
2017-07-16T02:56:14.299Z,1004.52
2017-07-16T02:57:24.632Z,1004.54
2017-07-16T02:58:35.011Z,1004.5
2017-07-16T02:59:45.355Z,1004.51
2017-07-16T03:00:55.693Z,1004.52
2017-07-16T03:33:18.701Z,1004.82
2017-07-16T03:34:29.038Z,1004.88
2017-07-16T03:35:39.379Z,1004.85
2017-07-16T03:36:49.398Z,1004.85
2017-07-16T03:37:59.429Z,1004.94
2017-07-16T03:39:09.504Z,1004.91
2017-07-16T03:40:19.852Z,1004.89
2017-07-16T03:41:30.249Z,1004.95
2017-07-16T03:42:40.581Z,1004.89
2017-07-16T03:43:50.627Z,1004.95
2017-07-16T03:45:00.973Z,1004.92
2017-07-16T03:46:10.990Z,1004.98
2017-07-16T03:47:21.026Z,1004.99
2017-07-16T03:48:31.364Z,1005.01
2017-07-16T03:49:41.401Z,1005
2017-07-16T03:50:51.804Z,1005.01
2017-07-16T03:52:02.164Z,1005.01
2017-07-16T03:53:12.506Z,1005.06
2017-07-16T03:54:22.213Z,1005.07
2017-07-16T03:55:32.554Z,1005.08
2017-07-16T03:56:42.897Z,1005.07
2017-07-16T03:57:53.248Z,1005.08
2017-07-16T03:59:03.275Z,1005.12
2017-07-16T04:00:13.298Z,1005.06
2017-07-16T04:01:23.634Z,1005.13
2017-07-16T04:02:33.386Z,1005.13
2017-07-16T04:03:43.733Z,1005.14
2017-07-16T04:04:54.087Z,1005.14
2017-07-16T04:06:03.472Z,1005.14
2017-07-16T04:07:13.805Z,1005.13
2017-07-16T04:08:23.885Z,1005.18
2017-07-16T04:09:34.257Z,1005.16
2017-07-16T04:10:44.598Z,1005.17
2017-07-16T04:11:54.980Z,1005.17
2017-07-16T04:13:05.338Z,1005.18
2017-07-16T04:14:15.688Z,1005.18
2017-07-16T04:15:26.036Z,1005.2
2017-07-16T04:16:36.071Z,1005.16
2017-07-16T04:17:46.117Z,1005.21
2017-07-16T04:18:56.462Z,1005.26
2017-07-16T04:20:06.179Z,1005.24
2017-07-16T04:21:16.541Z,1005.29
2017-07-16T04:22:26.896Z,1005.28
2017-07-16T04:23:36.919Z,1005.29
2017-07-16T04:24:47.254Z,1005.25
2017-07-16T04:25:57.321Z,1005.27
2017-07-16T04:27:07.338Z,1005.44
2017-07-16T04:28:17.685Z,1005.77
2017-07-16T04:29:27.716Z,1005.9
2017-07-16T04:30:37.739Z,1005.94
2017-07-16T04:31:48.131Z,1006.01
2017-07-16T04:32:57.837Z,1006.02
2017-07-16T04:34:07.860Z,1006.05
2017-07-16T04:35:17.885Z,1006.1
2017-07-16T04:36:28.271Z,1005.99
2017-07-16T04:37:38.680Z,1006
2017-07-16T04:38:48.715Z,1005.99
2017-07-16T04:39:59.066Z,1006.07
2017-07-16T04:41:09.096Z,1006.04
2017-07-16T04:42:19.455Z,1005.96
2017-07-16T04:43:29.530Z,1006.05
2017-07-16T04:44:39.576Z,1006.04
2017-07-16T04:45:49.935Z,1006.07
2017-07-16T04:47:00.284Z,1005.8
2017-07-16T04:48:10.310Z,1005.91
2017-07-16T04:49:20.662Z,1005.89
2017-07-16T04:50:31.022Z,1005.91
2017-07-16T04:51:41.379Z,1005.93
2017-07-16T04:52:51.737Z,1005.92
2017-07-16T04:54:02.109Z,1005.93
2017-07-16T04:55:12.460Z,1005.94
2017-07-16T04:56:22.817Z,1005.94
2017-07-16T04:57:33.172Z,1005.98
2017-07-16T04:58:43.521Z,1006
2017-07-16T04:59:53.558Z,1006.01
2017-07-16T05:01:03.589Z,1006.04
2017-07-16T05:02:13.625Z,1006.07
2017-07-16T05:03:23.678Z,1006.06
2017-07-16T05:04:34.018Z,1006.12
2017-07-16T05:05:44.372Z,1006.16
2017-07-16T05:06:54.764Z,1006.18
2017-07-16T05:08:05.136Z,1006.2
2017-07-16T05:09:15.152Z,1006.25
2017-07-16T05:10:25.188Z,1006.26
2017-07-16T05:11:35.224Z,1006.35
2017-07-16T05:12:45.643Z,1006.34
2017-07-16T05:13:55.690Z,1006.41
2017-07-16T05:15:06.050Z,1006.38
2017-07-16T05:16:16.092Z,1006.37
2017-07-16T05:17:26.456Z,1006.29
2017-07-16T05:18:36.526Z,1006.2
2017-07-16T05:19:46.573Z,1006.23
2017-07-16T05:20:56.287Z,1006.19
2017-07-16T05:22:06.658Z,1006.2
2017-07-16T05:23:16.688Z,1006.23
2017-07-16T05:24:26.784Z,1006.25
2017-07-16T05:25:37.128Z,1006.26
2017-07-16T05:26:47.488Z,1006.29
2017-07-16T05:27:57.845Z,1006.35
2017-07-16T05:29:08.193Z,1006.32
2017-07-16T05:30:18.602Z,1006.37
2017-07-16T05:31:28.946Z,1006.34
2017-07-16T05:32:39.294Z,1006.37
2017-07-16T05:33:49.339Z,1006.38
2017-07-16T05:34:59.717Z,1006.42
2017-07-16T05:36:09.810Z,1006.37
2017-07-16T05:37:20.244Z,1006.41
2017-07-16T05:38:30.606Z,1006.47
2017-07-16T05:39:41.004Z,1006.55
2017-07-16T05:40:51.383Z,1006.53
2017-07-16T05:42:01.799Z,1006.52
2017-07-16T05:43:11.519Z,1006.5
2017-07-16T05:44:21.870Z,1006.53
2017-07-16T05:45:31.923Z,1006.52
2017-07-16T05:46:42.277Z,1006.56
2017-07-16T05:47:52.332Z,1006.52
2017-07-16T05:49:02.688Z,1006.49
2017-07-16T05:50:13.042Z,1006.53
2017-07-16T05:51:23.083Z,1006.53
2017-07-16T05:52:33.450Z,1006.54
2017-07-16T05:53:43.521Z,1006.56
2017-07-16T05:54:53.556Z,1006.55
2017-07-16T05:56:03.945Z,1006.56
2017-07-16T05:57:14.304Z,1006.48
2017-07-16T05:58:24.333Z,1006.53
2017-07-16T05:59:34.681Z,1006.49
2017-07-16T06:00:45.041Z,1006.59
2017-07-16T06:01:55.402Z,1006.59
2017-07-16T06:03:05.431Z,1006.57
2017-07-16T06:04:15.497Z,1006.86
2017-07-16T06:05:25.538Z,1007.34
2017-07-16T06:06:35.570Z,1007.34
2017-07-16T06:07:45.606Z,1007.12
2017-07-16T06:08:55.634Z,1007.07
2017-07-16T06:10:05.986Z,1006.99
2017-07-16T06:11:16.390Z,1006.82
2017-07-16T06:12:26.753Z,1006.76
2017-07-16T06:13:36.796Z,1006.71
2017-07-16T06:14:47.253Z,1006.79
2017-07-16T06:15:57.633Z,1006.91
2017-07-16T06:17:07.979Z,1006.85
2017-07-16T06:18:18.332Z,1006.81
2017-07-16T06:19:28.710Z,1006.75
2017-07-16T06:20:38.750Z,1006.79
2017-07-16T06:21:49.119Z,1006.67
2017-07-16T06:22:59.139Z,1006.34
2017-07-16T06:24:08.873Z,1006.14
2017-07-16T06:25:19.283Z,1006.21
2017-07-16T06:26:29.311Z,1006.2
2017-07-16T06:27:39.365Z,1006.16
2017-07-16T06:28:49.468Z,1006.17
2017-07-16T06:29:59.500Z,1006.18
2017-07-16T06:31:09.887Z,1006.23
2017-07-16T06:32:20.246Z,1006.33
2017-07-16T06:33:30.598Z,1006.43
2017-07-16T06:34:40.956Z,1006.67
2017-07-16T06:35:51.330Z,1006.65
2017-07-16T06:37:01.679Z,1006.59
2017-07-16T06:38:12.043Z,1006.6
2017-07-16T06:39:22.418Z,1006.5
2017-07-16T06:40:32.766Z,1006.5
2017-07-16T06:41:43.132Z,1006.45
2017-07-16T06:42:53.496Z,1006.43
2017-07-16T06:44:03.852Z,1006.46
2017-07-16T06:45:14.217Z,1006.38
2017-07-16T06:46:24.244Z,1006.32
2017-07-16T06:47:34.280Z,1006.4
2017-07-16T06:48:44.317Z,1006.38
2017-07-16T06:49:54.351Z,1006.36
2017-07-16T06:51:04.690Z,1006.34
2017-07-16T06:52:15.301Z,1006.32
2017-07-16T06:53:25.644Z,1006.31
2017-07-16T06:54:36.015Z,1006.33
2017-07-16T06:55:46.381Z,1006.29
2017-07-16T06:56:56.760Z,1006.29
2017-07-16T06:58:06.816Z,1006.25
2017-07-16T06:59:16.853Z,1006.3
2017-07-16T07:00:26.893Z,1006.35
2017-07-16T07:01:37.241Z,1006.33
2017-07-16T07:02:47.594Z,1006.33
2017-07-16T07:03:57.962Z,1006.28
2017-07-16T07:05:08.320Z,1006.3
2017-07-16T07:06:18.827Z,1006.26
2017-07-16T07:07:28.863Z,1006.33
2017-07-16T07:08:39.229Z,1006.35
2017-07-16T07:09:49.618Z,1006.36
2017-07-16T07:10:59.666Z,1006.38
2017-07-16T07:12:09.698Z,1006.32
2017-07-16T07:13:19.731Z,1006.34
2017-07-16T07:14:30.311Z,1006.33
2017-07-16T07:15:40.369Z,1006.37
2017-07-16T07:16:50.095Z,1006.32
2017-07-16T07:18:00.195Z,1006.29
2017-07-16T07:19:10.544Z,1006.31
2017-07-16T07:20:20.580Z,1006.26
2017-07-16T07:21:30.297Z,1006.29
2017-07-16T07:22:40.370Z,1006.32
2017-07-16T07:23:50.710Z,1006.27
2017-07-16T07:25:01.057Z,1006.29
2017-07-16T07:26:11.089Z,1006.28
2017-07-16T07:27:21.442Z,1006.26
2017-07-16T07:28:31.485Z,1006.28
2017-07-16T07:29:41.837Z,1006.31
2017-07-16T07:30:52.182Z,1006.26
2017-07-16T07:32:02.225Z,1006.25
2017-07-16T07:33:12.580Z,1006.3
2017-07-16T07:34:22.656Z,1006.28
2017-07-16T07:35:32.746Z,1006.28
2017-07-16T07:36:43.111Z,1006.24
2017-07-16T07:37:53.479Z,1006.23
2017-07-16T07:39:03.843Z,1006.2
2017-07-16T07:40:14.203Z,1006.27
2017-07-16T07:41:23.928Z,1006.25
2017-07-16T07:42:33.655Z,1006.25
2017-07-16T07:43:43.683Z,1006.24
2017-07-16T07:44:53.726Z,1006.24
2017-07-16T07:46:03.770Z,1006.26
2017-07-16T07:47:14.147Z,1006.26
2017-07-16T07:48:24.543Z,1006.24
2017-07-16T07:49:34.911Z,1006.29
2017-07-16T07:50:45.289Z,1006.28
2017-07-16T07:51:55.334Z,1006.23
2017-07-16T07:53:04.786Z,1006.3
2017-07-16T07:54:15.159Z,1006.24
2017-07-16T07:55:25.209Z,1006.25
2017-07-16T07:56:35.565Z,1006.23
2017-07-16T07:57:45.920Z,1006.22
2017-07-16T07:58:56.338Z,1006.18
2017-07-16T08:00:06.698Z,1006.16
2017-07-16T08:01:17.069Z,1006.2
2017-07-16T08:02:27.447Z,1006.15
2017-07-16T08:03:37.472Z,1006.17
2017-07-16T08:04:47.883Z,1006.18
2017-07-16T08:05:58.246Z,1006.17
2017-07-16T08:07:08.302Z,1006.12
2017-07-16T08:08:18.349Z,1006.15
2017-07-16T08:09:28.726Z,1006.14
2017-07-16T08:10:39.090Z,1006.15
2017-07-16T08:11:49.433Z,1006.17
2017-07-16T08:12:59.784Z,1006.12
2017-07-16T08:14:10.150Z,1006.22
2017-07-16T08:15:20.511Z,1006.16
2017-07-16T08:16:30.963Z,1006.17
2017-07-16T08:17:41.325Z,1006.19
2017-07-16T08:18:51.689Z,1006.22
2017-07-16T08:20:01.746Z,1006.16
2017-07-16T08:21:12.113Z,1006.21
2017-07-16T08:22:22.514Z,1006.15
2017-07-16T08:23:32.862Z,1006.17
2017-07-16T08:24:43.212Z,1006.15
2017-07-16T08:25:53.561Z,1006.12
2017-07-16T08:27:03.312Z,1006.17
2017-07-16T08:28:13.364Z,1006.26
2017-07-16T08:29:23.742Z,1006.17
2017-07-16T08:30:33.797Z,1006.15
2017-07-16T08:31:44.145Z,1006.17
2017-07-16T08:32:54.198Z,1006.13
2017-07-16T08:34:04.570Z,1006.09
2017-07-16T08:35:14.950Z,1006.14
2017-07-16T08:36:25.317Z,1006.07
2017-07-16T08:37:35.363Z,1006.09
2017-07-16T08:38:45.089Z,1006.19
2017-07-16T08:39:55.505Z,1006.14
2017-07-16T08:41:05.867Z,1006.17
2017-07-16T08:42:15.937Z,1006.13
2017-07-16T08:43:26.302Z,1006.14
2017-07-16T08:44:36.665Z,1006.12
2017-07-16T08:45:46.897Z,1006.05
2017-07-16T08:46:56.938Z,1006.08
2017-07-16T08:48:07.317Z,1006
2017-07-16T08:49:17.683Z,1006.07
2017-07-16T08:50:28.050Z,1006.03
2017-07-16T08:51:38.113Z,1006.11
2017-07-16T08:52:48.454Z,1006.11
2017-07-16T08:53:58.828Z,1006.09
2017-07-16T08:55:08.886Z,1006.02
2017-07-16T08:56:18.918Z,1006
2017-07-16T08:57:29.297Z,1006.01
2017-07-16T08:58:39.338Z,1005.98
2017-07-16T08:59:49.708Z,1006.05
2017-07-16T09:00:59.743Z,1006.06
2017-07-16T09:02:10.128Z,1006.06
2017-07-16T09:03:20.540Z,1006.02
2017-07-16T09:04:30.917Z,1006.04
2017-07-16T09:05:41.265Z,1006.01
2017-07-16T09:06:51.635Z,1006.03
2017-07-16T09:08:01.351Z,1006.05
2017-07-16T09:09:11.447Z,1006
2017-07-16T09:10:21.505Z,1005.94
2017-07-16T09:11:31.553Z,1005.94
2017-07-16T09:12:42.145Z,1005.94
2017-07-16T09:13:52.522Z,1005.97
2017-07-16T09:15:02.293Z,1005.95
2017-07-16T09:16:12.548Z,1005.94
2017-07-16T09:17:22.914Z,1005.95
2017-07-16T09:18:32.961Z,1005.91
2017-07-16T09:19:42.995Z,1005.93
2017-07-16T09:20:52.769Z,1005.88
2017-07-16T09:22:03.133Z,1005.97
2017-07-16T09:23:13.184Z,1005.91
2017-07-16T09:24:23.536Z,1005.92
2017-07-16T09:25:33.916Z,1005.91
2017-07-16T09:26:44.342Z,1005.92
2017-07-16T09:27:54.711Z,1005.98
2017-07-16T09:29:05.059Z,1005.91
2017-07-16T09:30:15.096Z,1005.94
2017-07-16T09:31:25.143Z,1005.92
2017-07-16T09:32:35.196Z,1005.88
2017-07-16T09:33:45.545Z,1005.87
2017-07-16T09:34:55.936Z,1005.9
2017-07-16T09:36:06.007Z,1005.86
2017-07-16T09:37:16.605Z,1005.91
2017-07-16T09:38:26.984Z,1005.88
2017-07-16T09:39:37.436Z,1005.9
2017-07-16T09:40:47.795Z,1005.87
2017-07-16T09:41:58.167Z,1005.84
2017-07-16T09:43:08.551Z,1005.88
2017-07-16T09:44:18.597Z,1005.86
2017-07-16T09:45:28.012Z,1005.84
2017-07-16T09:46:38.373Z,1005.86
2017-07-16T09:47:48.426Z,1005.93
2017-07-16T09:48:58.467Z,1005.92
2017-07-16T09:50:08.579Z,1005.91
2017-07-16T09:51:18.627Z,1005.84
2017-07-16T09:52:29.000Z,1005.8
2017-07-16T09:53:39.376Z,1005.83
2017-07-16T09:54:49.736Z,1005.78
2017-07-16T09:56:00.150Z,1005.84
2017-07-16T09:57:10.192Z,1005.74
2017-07-16T09:58:20.260Z,1005.74
2017-07-16T09:59:30.285Z,1005.74
2017-07-16T10:00:40.363Z,1005.74
2017-07-16T10:01:50.477Z,1005.72
2017-07-16T10:03:00.900Z,1005.78
2017-07-16T10:04:11.283Z,1005.78
2017-07-16T10:05:21.339Z,1005.68
2017-07-16T10:06:31.715Z,1005.75
2017-07-16T10:07:42.131Z,1005.72
2017-07-16T10:08:52.502Z,1005.74
2017-07-16T10:10:02.531Z,1005.66
2017-07-16T10:11:12.896Z,1005.57
2017-07-16T10:12:22.948Z,1005.72
2017-07-16T10:13:33.356Z,1005.65
2017-07-16T10:14:43.418Z,1005.67
2017-07-16T10:15:53.134Z,1005.63
2017-07-16T10:17:03.562Z,1005.71
2017-07-16T10:18:12.965Z,1005.63
2017-07-16T10:19:23.342Z,1005.7
2017-07-16T10:20:33.724Z,1005.75
2017-07-16T10:21:44.100Z,1005.69
2017-07-16T10:22:54.140Z,1005.67
2017-07-16T10:24:04.503Z,1005.71
2017-07-16T10:25:14.590Z,1005.67
2017-07-16T10:26:24.654Z,1005.68
2017-07-16T10:27:34.396Z,1005.64
2017-07-16T10:28:44.448Z,1005.59
2017-07-16T10:29:54.796Z,1005.57
2017-07-16T10:31:05.184Z,1005.51
2017-07-16T10:32:15.559Z,1005.49
2017-07-16T10:33:25.927Z,1005.48
2017-07-16T10:34:36.300Z,1005.52
2017-07-16T10:35:46.369Z,1005.62
2017-07-16T10:36:56.452Z,1005.62
2017-07-16T10:38:06.497Z,1005.56
2017-07-16T10:39:16.883Z,1005.58
2017-07-16T10:40:27.259Z,1005.6
2017-07-16T10:41:37.628Z,1005.54
2017-07-16T10:42:47.988Z,1005.57
2017-07-16T10:43:58.374Z,1005.59
2017-07-16T10:45:08.756Z,1005.53
2017-07-16T10:46:19.102Z,1005.6
2017-07-16T10:47:29.456Z,1005.45
2017-07-16T10:48:39.871Z,1005.55
2017-07-16T10:49:50.236Z,1005.48
2017-07-16T10:51:00.302Z,1005.38
2017-07-16T10:52:10.369Z,1005.43
2017-07-16T10:53:20.745Z,1005.44
2017-07-16T10:54:31.112Z,1005.42
2017-07-16T10:55:41.492Z,1005.43
2017-07-16T10:56:51.545Z,1005.51
2017-07-16T10:58:01.600Z,1005.46
2017-07-16T10:59:11.977Z,1005.47
2017-07-16T11:00:22.347Z,1005.5
2017-07-16T11:01:32.714Z,1005.54
2017-07-16T11:02:43.093Z,1005.47
2017-07-16T11:03:53.665Z,1005.48
2017-07-16T11:05:04.023Z,1005.48
2017-07-16T11:06:14.427Z,1005.43
2017-07-16T11:07:24.795Z,1005.42
2017-07-16T11:08:35.175Z,1005.4
2017-07-16T11:09:45.227Z,1005.36
2017-07-16T11:10:55.593Z,1005.3
2017-07-16T11:12:06.026Z,1005.23
2017-07-16T11:13:16.082Z,1005.24
2017-07-16T11:14:26.457Z,1005.3
2017-07-16T11:15:36.511Z,1005.29
2017-07-16T11:16:46.871Z,1005.35
2017-07-16T11:17:57.289Z,1005.28
2017-07-16T11:19:07.652Z,1005.32
2017-07-16T11:20:17.988Z,1005.31
2017-07-16T11:21:28.339Z,1005.3
2017-07-16T11:22:38.700Z,1005.38
2017-07-16T11:23:49.121Z,1005.45
2017-07-16T11:24:59.473Z,1005.35
2017-07-16T11:26:09.811Z,1005.33
2017-07-16T11:27:20.173Z,1005.26
2017-07-16T11:28:30.544Z,1005.29
2017-07-16T11:29:40.639Z,1005.26
2017-07-16T11:30:51.000Z,1005.26
2017-07-16T11:32:01.357Z,1005.22
2017-07-16T11:33:11.420Z,1005.28
2017-07-16T11:34:21.485Z,1005.25
2017-07-16T11:35:31.890Z,1005.24
2017-07-16T11:36:41.929Z,1005.25
2017-07-16T11:37:52.379Z,1005.2
2017-07-16T11:39:02.437Z,1005.24
2017-07-16T11:40:12.487Z,1005.14
2017-07-16T11:41:23.871Z,1005.21
2017-07-16T11:42:34.443Z,1005.17
2017-07-16T11:43:44.815Z,1005.2
2017-07-16T11:44:55.164Z,1005.11
2017-07-16T11:46:05.537Z,1005.06
2017-07-16T11:47:15.932Z,1005.03
2017-07-16T11:48:25.972Z,1005.08
2017-07-16T11:49:36.354Z,1005.07
2017-07-16T11:50:46.744Z,1005.13
2017-07-16T11:51:56.820Z,1005.03
2017-07-16T11:53:06.931Z,1005.11
2017-07-16T11:54:17.513Z,1005.06
2017-07-16T11:55:27.861Z,1005.01
2017-07-16T11:56:37.578Z,1005.01
2017-07-16T11:57:47.620Z,1005.01
2017-07-16T11:58:58.052Z,1005.01
2017-07-16T12:00:08.428Z,1005.03
2017-07-16T12:01:18.792Z,1005.05
2017-07-16T12:02:28.839Z,1005.03
2017-07-16T12:03:38.881Z,1004.97
2017-07-16T12:04:49.307Z,1005.01
2017-07-16T12:05:59.696Z,1004.97
2017-07-16T12:07:09.752Z,1004.92
2017-07-16T12:08:20.154Z,1004.93
2017-07-16T12:09:30.518Z,1004.94
2017-07-16T12:10:40.937Z,1004.84
2017-07-16T12:11:51.325Z,1004.87
2017-07-16T12:13:01.692Z,1004.87
2017-07-16T12:14:11.748Z,1004.94
2017-07-16T12:15:21.784Z,1004.92
2017-07-16T12:16:31.822Z,1004.83
2017-07-16T12:17:41.869Z,1004.78
2017-07-16T12:18:52.255Z,1004.75
2017-07-16T12:20:02.282Z,1004.89
2017-07-16T12:21:12.334Z,1004.85
2017-07-16T12:22:22.376Z,1004.78
2017-07-16T12:23:32.423Z,1004.9
2017-07-16T12:24:42.795Z,1004.75
2017-07-16T12:25:53.185Z,1004.86
2017-07-16T12:27:03.224Z,1004.84
2017-07-16T12:28:13.010Z,1004.84
2017-07-16T12:29:22.746Z,1004.85
2017-07-16T12:30:33.120Z,1004.82
2017-07-16T12:31:43.495Z,1004.8
2017-07-16T12:32:53.848Z,1004.77
2017-07-16T12:34:03.578Z,1004.66
2017-07-16T12:35:13.947Z,1004.71
2017-07-16T12:36:24.332Z,1004.74
2017-07-16T12:37:34.384Z,1004.71
2017-07-16T12:38:44.421Z,1004.66
2017-07-16T12:39:54.826Z,1004.66
2017-07-16T12:41:05.200Z,1004.59
2017-07-16T12:42:15.556Z,1004.61
2017-07-16T12:43:25.912Z,1004.6
2017-07-16T12:44:36.280Z,1004.62
2017-07-16T12:45:46.646Z,1004.5
2017-07-16T12:46:57.015Z,1004.55
2017-07-16T12:48:07.081Z,1004.55
2017-07-16T12:49:17.462Z,1004.63
2017-07-16T12:50:27.852Z,1004.54
2017-07-16T12:51:38.268Z,1004.61
2017-07-16T12:52:48.641Z,1004.63
2017-07-16T12:53:58.706Z,1004.5
2017-07-16T12:55:09.086Z,1004.56
2017-07-16T12:56:18.816Z,1004.53
2017-07-16T12:57:29.231Z,1004.57
2017-07-16T12:58:39.604Z,1004.54
2017-07-16T12:59:49.955Z,1004.48
2017-07-16T13:00:59.996Z,1004.56
2017-07-16T13:02:10.061Z,1004.57
2017-07-16T13:03:20.460Z,1004.55
2017-07-16T13:04:30.857Z,1004.51
2017-07-16T13:05:41.228Z,1004.62
2017-07-16T13:06:51.600Z,1004.64
2017-07-16T13:08:01.966Z,1004.63
2017-07-16T13:09:12.308Z,1004.62
2017-07-16T13:10:22.697Z,1004.6
2017-07-16T13:11:32.746Z,1004.65
2017-07-16T13:12:42.462Z,1004.57
2017-07-16T13:13:52.826Z,1004.59
2017-07-16T13:15:03.224Z,1004.63
2017-07-16T13:16:13.598Z,1004.65
2017-07-16T13:17:23.640Z,1004.64
2017-07-16T13:18:34.019Z,1004.62
2017-07-16T13:19:44.379Z,1004.62
2017-07-16T13:20:54.741Z,1004.63
2017-07-16T13:22:05.134Z,1004.66
2017-07-16T13:23:15.498Z,1004.58
2017-07-16T13:24:25.207Z,1004.62
2017-07-16T13:25:35.588Z,1004.61
2017-07-16T13:26:45.959Z,1004.54
2017-07-16T13:27:56.007Z,1004.48
2017-07-16T13:29:06.106Z,1004.48
2017-07-16T13:30:16.467Z,1004.49
2017-07-16T13:31:26.827Z,1004.48
2017-07-16T13:32:37.275Z,1004.56
2017-07-16T13:33:47.001Z,1004.53
2017-07-16T13:34:57.107Z,1004.51
2017-07-16T13:36:07.467Z,1004.43
2017-07-16T13:37:18.110Z,1004.44
2017-07-16T13:38:28.528Z,1004.41
2017-07-16T13:39:38.904Z,1004.39
2017-07-16T13:40:49.280Z,1004.42
2017-07-16T13:41:59.686Z,1004.34
2017-07-16T13:43:10.075Z,1004.42
2017-07-16T13:44:19.852Z,1004.41
2017-07-16T13:45:30.203Z,1004.42
2017-07-16T13:46:40.580Z,1004.4
2017-07-16T13:47:50.622Z,1004.34
2017-07-16T13:49:00.994Z,1004.38
2017-07-16T13:50:10.721Z,1004.36
2017-07-16T13:51:21.076Z,1004.34
2017-07-16T13:52:31.459Z,1004.35
2017-07-16T13:53:41.839Z,1004.35
2017-07-16T13:54:52.297Z,1004.3
2017-07-16T13:56:02.724Z,1004.32
2017-07-16T13:57:13.158Z,1004.39
2017-07-16T13:58:23.527Z,1004.34
2017-07-16T13:59:33.912Z,1004.37
2017-07-16T14:00:44.083Z,1004.41
2017-07-16T14:01:54.532Z,1004.39
2017-07-16T14:03:04.939Z,1004.47
2017-07-16T14:04:15.333Z,1004.38
2017-07-16T14:05:25.713Z,1004.38
2017-07-16T14:06:36.090Z,1004.39
2017-07-16T14:07:46.474Z,1004.38
2017-07-16T14:08:56.601Z,1004.42
2017-07-16T14:10:06.974Z,1004.44
2017-07-16T14:11:17.031Z,1004.42
2017-07-16T14:12:27.426Z,1004.37
2017-07-16T14:13:37.817Z,1004.42
2017-07-16T14:14:48.269Z,1004.35
2017-07-16T14:15:58.655Z,1004.4
2017-07-16T14:17:09.050Z,1004.41
2017-07-16T14:18:19.441Z,1004.35
2017-07-16T14:19:29.881Z,1004.46
2017-07-16T14:20:40.310Z,1004.35
2017-07-16T14:21:50.373Z,1004.43
2017-07-16T14:23:00.740Z,1004.32
2017-07-16T14:24:11.126Z,1004.34
2017-07-16T14:25:21.490Z,1004.4
2017-07-16T14:26:31.929Z,1004.4
2017-07-16T14:27:42.315Z,1004.26
2017-07-16T14:28:52.695Z,1004.25
2017-07-16T14:30:03.071Z,1004.22
2017-07-16T14:31:13.149Z,1004.21
2017-07-16T14:32:23.580Z,1004.21
2017-07-16T14:33:33.951Z,1004.22
2017-07-16T14:34:44.024Z,1004.28
2017-07-16T14:35:54.114Z,1004.23
2017-07-16T14:37:04.179Z,1004.29
2017-07-16T14:38:14.622Z,1004.28
2017-07-16T14:39:25.021Z,1004.27
2017-07-16T14:40:35.396Z,1004.3
2017-07-16T14:41:45.444Z,1004.29
2017-07-16T14:42:55.815Z,1004.28
2017-07-16T14:44:06.180Z,1004.26